sensor_id;sensor_type;location;lat;lon;timestamp;P1;durP1;ratioP1;P2;durP2;ratioP2
33403;SDS011;19751;40.274;18.268;2022-12-18T00:01:31;23.83;;;14.80;;
33403;SDS011;19751;40.274;18.268;2022-12-18T00:04:02;28.77;;;13.80;;
33403;SDS011;19751;40.274;18.268;2022-12-18T00:06:33;24.02;;;13.70;;
33403;SDS011;19751;40.274;18.268;2022-12-18T00:08:59;25.75;;;14.73;;
33403;SDS011;19751;40.274;18.268;2022-12-18T00:11:27;17.50;;;13.40;;
33403;SDS011;19751;40.274;18.268;2022-12-18T00:13:55;24.05;;;14.45;;
33403;SDS011;19751;40.274;18.268;2022-12-18T00:16:22;24.52;;;15.48;;
33403;SDS011;19751;40.274;18.268;2022-12-18T00:18:50;26.10;;;15.32;;
33403;SDS011;19751;40.274;18.268;2022-12-18T00:21:18;22.65;;;14.00;;
33403;SDS011;19751;40.274;18.268;2022-12-18T00:23:45;26.35;;;15.05;;
33403;SDS011;19751;40.274;18.268;2022-12-18T00:26:13;24.92;;;14.20;;
33403;SDS011;19751;40.274;18.268;2022-12-18T00:28:43;21.35;;;13.75;;
33403;SDS011;19751;40.274;18.268;2022-12-18T00:31:10;26.55;;;14.68;;
33403;SDS011;19751;40.274;18.268;2022-12-18T00:38:35;26.35;;;17.98;;
33403;SDS011;19751;40.274;18.268;2022-12-18T00:41:01;29.35;;;18.30;;
33403;SDS011;19751;40.274;18.268;2022-12-18T00:43:27;29.48;;;18.67;;
33403;SDS011;19751;40.274;18.268;2022-12-18T00:45:54;30.95;;;18.73;;
33403;SDS011;19751;40.274;18.268;2022-12-18T00:48:20;27.08;;;16.20;;
33403;SDS011;19751;40.274;18.268;2022-12-18T00:50:47;22.30;;;12.90;;
33403;SDS011;19751;40.274;18.268;2022-12-18T00:53:13;23.13;;;12.93;;
33403;SDS011;19751;40.274;18.268;2022-12-18T00:55:39;18.20;;;13.00;;
33403;SDS011;19751;40.274;18.268;2022-12-18T00:58:06;26.98;;;15.52;;
33403;SDS011;19751;40.274;18.268;2022-12-18T01:00:32;31.55;;;18.35;;
33403;SDS011;19751;40.274;18.268;2022-12-18T01:02:58;29.48;;;18.00;;
33403;SDS011;19751;40.274;18.268;2022-12-18T01:05:26;33.38;;;18.33;;
33403;SDS011;19751;40.274;18.268;2022-12-18T01:07:52;32.65;;;19.20;;
33403;SDS011;19751;40.274;18.268;2022-12-18T01:10:17;33.55;;;19.85;;
33403;SDS011;19751;40.274;18.268;2022-12-18T01:15:13;32.90;;;19.60;;
33403;SDS011;19751;40.274;18.268;2022-12-18T01:17:41;30.38;;;17.95;;
33403;SDS011;19751;40.274;18.268;2022-12-18T01:20:14;37.22;;;18.77;;
33403;SDS011;19751;40.274;18.268;2022-12-18T01:22:40;31.00;;;18.33;;
33403;SDS011;19751;40.274;18.268;2022-12-18T01:25:05;27.83;;;17.35;;
33403;SDS011;19751;40.274;18.268;2022-12-18T01:27:33;28.15;;;15.35;;
33403;SDS011;19751;40.274;18.268;2022-12-18T01:29:59;25.70;;;14.35;;
33403;SDS011;19751;40.274;18.268;2022-12-18T01:32:24;22.73;;;14.07;;
33403;SDS011;19751;40.274;18.268;2022-12-18T01:34:52;20.33;;;12.98;;
33403;SDS011;19751;40.274;18.268;2022-12-18T01:37:18;21.92;;;13.27;;
33403;SDS011;19751;40.274;18.268;2022-12-18T01:39:45;23.35;;;14.57;;
33403;SDS011;19751;40.274;18.268;2022-12-18T01:42:12;22.13;;;13.65;;
33403;SDS011;19751;40.274;18.268;2022-12-18T01:44:56;20.83;;;12.93;;
33403;SDS011;19751;40.274;18.268;2022-12-18T01:49:55;33.85;;;16.38;;
33403;SDS011;19751;40.274;18.268;2022-12-18T01:52:22;22.15;;;14.07;;
33403;SDS011;19751;40.274;18.268;2022-12-18T01:54:51;22.20;;;15.43;;
33403;SDS011;19751;40.274;18.268;2022-12-18T01:57:18;24.13;;;13.38;;
33403;SDS011;19751;40.274;18.268;2022-12-18T01:59:45;23.60;;;13.55;;
33403;SDS011;19751;40.274;18.268;2022-12-18T02:02:17;17.48;;;12.05;;
33403;SDS011;19751;40.274;18.268;2022-12-18T02:04:44;23.60;;;12.95;;
33403;SDS011;19751;40.274;18.268;2022-12-18T02:15:42;28.35;;;14.65;;
33403;SDS011;19751;40.274;18.268;2022-12-18T02:18:33;24.40;;;14.23;;
33403;SDS011;19751;40.274;18.268;2022-12-18T02:29:00;24.47;;;14.30;;
33403;SDS011;19751;40.274;18.268;2022-12-18T02:31:34;25.13;;;14.90;;
33403;SDS011;19751;40.274;18.268;2022-12-18T02:34:10;25.48;;;14.10;;
33403;SDS011;19751;40.274;18.268;2022-12-18T02:36:39;24.08;;;14.13;;
33403;SDS011;19751;40.274;18.268;2022-12-18T02:39:09;23.20;;;13.55;;
33403;SDS011;19751;40.274;18.268;2022-12-18T02:41:36;25.13;;;13.98;;
33403;SDS011;19751;40.274;18.268;2022-12-18T02:44:09;20.75;;;13.93;;
33403;SDS011;19751;40.274;18.268;2022-12-18T02:46:52;20.63;;;13.30;;
33403;SDS011;19751;40.274;18.268;2022-12-18T02:57:56;22.27;;;12.93;;
33403;SDS011;19751;40.274;18.268;2022-12-18T03:00:33;20.10;;;10.55;;
33403;SDS011;19751;40.274;18.268;2022-12-18T03:03:16;22.63;;;12.07;;
33403;SDS011;19751;40.274;18.268;2022-12-18T03:05:50;19.98;;;11.02;;
33403;SDS011;19751;40.274;18.268;2022-12-18T03:11:21;22.13;;;13.32;;
33403;SDS011;19751;40.274;18.268;2022-12-18T03:14:08;20.02;;;11.32;;
33403;SDS011;19751;40.274;18.268;2022-12-18T03:16:36;19.55;;;11.40;;
33403;SDS011;19751;40.274;18.268;2022-12-18T03:19:14;16.35;;;11.38;;
33403;SDS011;19751;40.274;18.268;2022-12-18T03:21:53;20.70;;;11.23;;
33403;SDS011;19751;40.274;18.268;2022-12-18T03:24:21;18.75;;;10.70;;
33403;SDS011;19751;40.274;18.268;2022-12-18T03:26:51;16.55;;;10.63;;
33403;SDS011;19751;40.274;18.268;2022-12-18T03:31:50;16.58;;;11.95;;
33403;SDS011;19751;40.274;18.268;2022-12-18T03:34:23;17.92;;;10.13;;
33403;SDS011;19751;40.274;18.268;2022-12-18T03:36:56;16.23;;;9.45;;
33403;SDS011;19751;40.274;18.268;2022-12-18T03:39:23;14.93;;;9.30;;
33403;SDS011;19751;40.274;18.268;2022-12-18T03:41:55;16.70;;;9.10;;
33403;SDS011;19751;40.274;18.268;2022-12-18T03:47:06;15.63;;;9.70;;
33403;SDS011;19751;40.274;18.268;2022-12-18T03:52:28;16.13;;;8.97;;
33403;SDS011;19751;40.274;18.268;2022-12-18T03:54:59;16.35;;;9.90;;
33403;SDS011;19751;40.274;18.268;2022-12-18T03:57:31;13.85;;;8.80;;
33403;SDS011;19751;40.274;18.268;2022-12-18T04:00:17;19.02;;;9.70;;
33403;SDS011;19751;40.274;18.268;2022-12-18T04:02:45;16.55;;;9.82;;
33403;SDS011;19751;40.274;18.268;2022-12-18T04:05:14;13.27;;;8.63;;
33403;SDS011;19751;40.274;18.268;2022-12-18T04:07:41;14.55;;;9.10;;
33403;SDS011;19751;40.274;18.268;2022-12-18T04:10:08;14.95;;;9.80;;
33403;SDS011;19751;40.274;18.268;2022-12-18T04:15:05;13.27;;;7.68;;
33403;SDS011;19751;40.274;18.268;2022-12-18T04:17:32;13.85;;;9.38;;
33403;SDS011;19751;40.274;18.268;2022-12-18T04:22:26;12.23;;;7.43;;
33403;SDS011;19751;40.274;18.268;2022-12-18T04:24:52;15.35;;;7.45;;
33403;SDS011;19751;40.274;18.268;2022-12-18T04:27:18;10.23;;;7.00;;
33403;SDS011;19751;40.274;18.268;2022-12-18T04:29:43;12.45;;;9.02;;
33403;SDS011;19751;40.274;18.268;2022-12-18T04:32:09;12.93;;;9.13;;
33403;SDS011;19751;40.274;18.268;2022-12-18T04:34:41;11.38;;;7.65;;
33403;SDS011;19751;40.274;18.268;2022-12-18T04:37:06;11.48;;;8.15;;
33403;SDS011;19751;40.274;18.268;2022-12-18T04:39:33;11.98;;;8.15;;
33403;SDS011;19751;40.274;18.268;2022-12-18T04:41:59;20.30;;;9.23;;
33403;SDS011;19751;40.274;18.268;2022-12-18T04:44:25;11.50;;;8.07;;
33403;SDS011;19751;40.274;18.268;2022-12-18T04:46:51;16.00;;;8.77;;
33403;SDS011;19751;40.274;18.268;2022-12-18T04:49:16;13.75;;;7.57;;
33403;SDS011;19751;40.274;18.268;2022-12-18T04:51:44;11.50;;;7.82;;
33403;SDS011;19751;40.274;18.268;2022-12-18T04:54:10;17.35;;;8.02;;
33403;SDS011;19751;40.274;18.268;2022-12-18T04:56:35;6.80;;;5.80;;
33403;SDS011;19751;40.274;18.268;2022-12-18T04:59:01;12.45;;;5.55;;
33403;SDS011;19751;40.274;18.268;2022-12-18T05:01:26;8.45;;;6.18;;
33403;SDS011;19751;40.274;18.268;2022-12-18T05:03:54;13.18;;;6.85;;
33403;SDS011;19751;40.274;18.268;2022-12-18T05:06:19;10.07;;;6.60;;
33403;SDS011;19751;40.274;18.268;2022-12-18T05:08:45;8.63;;;5.60;;
33403;SDS011;19751;40.274;18.268;2022-12-18T05:11:12;10.73;;;6.38;;
33403;SDS011;19751;40.274;18.268;2022-12-18T05:13:42;9.90;;;5.97;;
33403;SDS011;19751;40.274;18.268;2022-12-18T05:16:09;6.68;;;4.70;;
33403;SDS011;19751;40.274;18.268;2022-12-18T05:18:36;9.77;;;5.28;;
33403;SDS011;19751;40.274;18.268;2022-12-18T05:21:02;10.85;;;5.55;;
33403;SDS011;19751;40.274;18.268;2022-12-18T05:23:27;8.13;;;4.68;;
33403;SDS011;19751;40.274;18.268;2022-12-18T05:25:56;7.05;;;4.40;;
33403;SDS011;19751;40.274;18.268;2022-12-18T05:28:24;8.20;;;4.03;;
33403;SDS011;19751;40.274;18.268;2022-12-18T05:30:52;5.72;;;4.00;;
33403;SDS011;19751;40.274;18.268;2022-12-18T05:33:22;13.57;;;4.60;;
33403;SDS011;19751;40.274;18.268;2022-12-18T05:35:50;11.90;;;4.47;;
33403;SDS011;19751;40.274;18.268;2022-12-18T05:38:20;11.98;;;4.25;;
33403;SDS011;19751;40.274;18.268;2022-12-18T05:40:47;7.78;;;4.47;;
33403;SDS011;19751;40.274;18.268;2022-12-18T05:43:16;8.35;;;4.22;;
33403;SDS011;19751;40.274;18.268;2022-12-18T05:45:43;5.90;;;4.18;;
33403;SDS011;19751;40.274;18.268;2022-12-18T05:48:08;8.50;;;4.45;;
33403;SDS011;19751;40.274;18.268;2022-12-18T05:50:39;8.20;;;4.25;;
33403;SDS011;19751;40.274;18.268;2022-12-18T05:53:09;10.80;;;4.43;;
33403;SDS011;19751;40.274;18.268;2022-12-18T05:55:36;4.50;;;3.08;;
33403;SDS011;19751;40.274;18.268;2022-12-18T05:58:03;7.93;;;3.78;;
33403;SDS011;19751;40.274;18.268;2022-12-18T06:00:36;8.90;;;5.10;;
33403;SDS011;19751;40.274;18.268;2022-12-18T06:03:07;11.18;;;7.30;;
33403;SDS011;19751;40.274;18.268;2022-12-18T06:05:37;10.70;;;6.68;;
33403;SDS011;19751;40.274;18.268;2022-12-18T06:08:05;11.50;;;5.63;;
33403;SDS011;19751;40.274;18.268;2022-12-18T06:10:31;10.00;;;6.85;;
33403;SDS011;19751;40.274;18.268;2022-12-18T06:12:58;12.57;;;8.32;;
33403;SDS011;19751;40.274;18.268;2022-12-18T06:15:25;10.70;;;7.50;;
33403;SDS011;19751;40.274;18.268;2022-12-18T06:17:51;9.95;;;5.78;;
33403;SDS011;19751;40.274;18.268;2022-12-18T06:20:18;10.65;;;5.03;;
33403;SDS011;19751;40.274;18.268;2022-12-18T06:22:44;11.50;;;7.15;;
33403;SDS011;19751;40.274;18.268;2022-12-18T06:25:10;13.60;;;7.25;;
33403;SDS011;19751;40.274;18.268;2022-12-18T06:27:35;17.23;;;7.65;;
33403;SDS011;19751;40.274;18.268;2022-12-18T06:30:03;6.95;;;4.88;;
33403;SDS011;19751;40.274;18.268;2022-12-18T06:32:29;8.50;;;4.10;;
33403;SDS011;19751;40.274;18.268;2022-12-18T06:34:56;4.75;;;3.30;;
33403;SDS011;19751;40.274;18.268;2022-12-18T06:37:22;6.57;;;3.53;;
33403;SDS011;19751;40.274;18.268;2022-12-18T06:39:53;7.15;;;3.92;;
33403;SDS011;19751;40.274;18.268;2022-12-18T06:42:18;11.73;;;7.97;;
33403;SDS011;19751;40.274;18.268;2022-12-18T06:44:48;9.02;;;5.55;;
33403;SDS011;19751;40.274;18.268;2022-12-18T06:47:13;9.43;;;4.72;;
33403;SDS011;19751;40.274;18.268;2022-12-18T06:49:39;11.18;;;3.72;;
33403;SDS011;19751;40.274;18.268;2022-12-18T06:52:05;11.98;;;3.90;;
33403;SDS011;19751;40.274;18.268;2022-12-18T06:54:33;8.23;;;2.97;;
33403;SDS011;19751;40.274;18.268;2022-12-18T06:56:59;8.65;;;3.53;;
33403;SDS011;19751;40.274;18.268;2022-12-18T06:59:25;7.78;;;2.85;;
33403;SDS011;19751;40.274;18.268;2022-12-18T07:01:50;11.45;;;4.63;;
33403;SDS011;19751;40.274;18.268;2022-12-18T07:04:16;4.30;;;3.38;;
33403;SDS011;19751;40.274;18.268;2022-12-18T07:06:42;8.27;;;3.67;;
33403;SDS011;19751;40.274;18.268;2022-12-18T07:09:07;11.65;;;4.60;;
33403;SDS011;19751;40.274;18.268;2022-12-18T07:11:34;7.63;;;4.07;;
33403;SDS011;19751;40.274;18.268;2022-12-18T07:14:02;5.72;;;3.42;;
33403;SDS011;19751;40.274;18.268;2022-12-18T07:16:27;5.10;;;2.88;;
33403;SDS011;19751;40.274;18.268;2022-12-18T07:18:54;7.93;;;3.72;;
33403;SDS011;19751;40.274;18.268;2022-12-18T07:21:20;7.05;;;3.60;;
33403;SDS011;19751;40.274;18.268;2022-12-18T07:23:46;6.10;;;3.13;;
33403;SDS011;19751;40.274;18.268;2022-12-18T07:26:16;9.00;;;4.05;;
33403;SDS011;19751;40.274;18.268;2022-12-18T07:28:43;8.18;;;3.78;;
33403;SDS011;19751;40.274;18.268;2022-12-18T07:31:11;7.35;;;3.05;;
33403;SDS011;19751;40.274;18.268;2022-12-18T07:33:39;7.40;;;3.47;;
33403;SDS011;19751;40.274;18.268;2022-12-18T07:36:06;6.72;;;3.10;;
33403;SDS011;19751;40.274;18.268;2022-12-18T07:38:33;10.02;;;3.75;;
33403;SDS011;19751;40.274;18.268;2022-12-18T07:41:05;4.60;;;2.33;;
33403;SDS011;19751;40.274;18.268;2022-12-18T07:43:32;4.85;;;2.92;;
33403;SDS011;19751;40.274;18.268;2022-12-18T07:45:59;5.32;;;3.10;;
33403;SDS011;19751;40.274;18.268;2022-12-18T07:48:24;6.47;;;2.90;;
33403;SDS011;19751;40.274;18.268;2022-12-18T07:50:50;9.95;;;2.92;;
33403;SDS011;19751;40.274;18.268;2022-12-18T07:53:16;4.82;;;2.92;;
33403;SDS011;19751;40.274;18.268;2022-12-18T07:55:42;6.65;;;2.97;;
33403;SDS011;19751;40.274;18.268;2022-12-18T07:58:08;6.53;;;3.00;;
33403;SDS011;19751;40.274;18.268;2022-12-18T08:00:34;4.38;;;2.35;;
33403;SDS011;19751;40.274;18.268;2022-12-18T08:03:00;13.90;;;5.18;;
33403;SDS011;19751;40.274;18.268;2022-12-18T08:05:26;12.23;;;4.00;;
33403;SDS011;19751;40.274;18.268;2022-12-18T08:07:52;7.18;;;3.00;;
33403;SDS011;19751;40.274;18.268;2022-12-18T08:10:27;5.53;;;2.58;;
33403;SDS011;19751;40.274;18.268;2022-12-18T08:12:52;8.65;;;3.80;;
33403;SDS011;19751;40.274;18.268;2022-12-18T08:15:20;8.07;;;3.40;;
33403;SDS011;19751;40.274;18.268;2022-12-18T08:17:45;11.07;;;4.07;;
33403;SDS011;19751;40.274;18.268;2022-12-18T08:20:11;5.00;;;2.90;;
33403;SDS011;19751;40.274;18.268;2022-12-18T08:22:41;9.05;;;2.90;;
33403;SDS011;19751;40.274;18.268;2022-12-18T08:25:07;10.25;;;2.45;;
33403;SDS011;19751;40.274;18.268;2022-12-18T08:27:33;7.10;;;2.95;;
33403;SDS011;19751;40.274;18.268;2022-12-18T08:29:59;16.30;;;2.80;;
33403;SDS011;19751;40.274;18.268;2022-12-18T08:32:25;10.52;;;2.55;;
33403;SDS011;19751;40.274;18.268;2022-12-18T08:34:52;6.97;;;3.25;;
33403;SDS011;19751;40.274;18.268;2022-12-18T08:37:17;5.35;;;1.95;;
33403;SDS011;19751;40.274;18.268;2022-12-18T08:39:47;3.55;;;1.80;;
33403;SDS011;19751;40.274;18.268;2022-12-18T08:42:13;9.52;;;2.70;;
33403;SDS011;19751;40.274;18.268;2022-12-18T08:47:29;6.43;;;2.72;;
33403;SDS011;19751;40.274;18.268;2022-12-18T08:49:56;6.38;;;2.88;;
33403;SDS011;19751;40.274;18.268;2022-12-18T08:52:21;5.65;;;2.60;;
33403;SDS011;19751;40.274;18.268;2022-12-18T08:54:47;13.40;;;4.10;;
33403;SDS011;19751;40.274;18.268;2022-12-18T08:57:13;4.25;;;2.80;;
33403;SDS011;19751;40.274;18.268;2022-12-18T08:59:39;4.95;;;1.95;;
33403;SDS011;19751;40.274;18.268;2022-12-18T09:02:06;13.02;;;3.03;;
33403;SDS011;19751;40.274;18.268;2022-12-18T09:04:34;9.90;;;2.92;;
33403;SDS011;19751;40.274;18.268;2022-12-18T09:06:59;6.97;;;2.92;;
33403;SDS011;19751;40.274;18.268;2022-12-18T09:09:31;13.88;;;3.05;;
33403;SDS011;19751;40.274;18.268;2022-12-18T09:11:57;7.75;;;2.72;;
33403;SDS011;19751;40.274;18.268;2022-12-18T09:14:23;6.93;;;3.30;;
33403;SDS011;19751;40.274;18.268;2022-12-18T09:16:49;6.80;;;2.30;;
33403;SDS011;19751;40.274;18.268;2022-12-18T09:19:14;11.95;;;7.45;;
33403;SDS011;19751;40.274;18.268;2022-12-18T09:21:40;15.45;;;7.38;;
33403;SDS011;19751;40.274;18.268;2022-12-18T09:24:08;13.05;;;3.88;;
33403;SDS011;19751;40.274;18.268;2022-12-18T09:26:37;8.02;;;3.63;;
33403;SDS011;19751;40.274;18.268;2022-12-18T09:29:03;11.23;;;3.50;;
33403;SDS011;19751;40.274;18.268;2022-12-18T09:34:07;12.77;;;6.38;;
33403;SDS011;19751;40.274;18.268;2022-12-18T09:36:32;11.40;;;3.70;;
33403;SDS011;19751;40.274;18.268;2022-12-18T09:38:58;13.48;;;5.03;;
33403;SDS011;19751;40.274;18.268;2022-12-18T09:49:42;6.85;;;3.28;;
33403;SDS011;19751;40.274;18.268;2022-12-18T09:57:49;6.72;;;2.17;;
33403;SDS011;19751;40.274;18.268;2022-12-18T10:00:22;5.88;;;1.70;;
33403;SDS011;19751;40.274;18.268;2022-12-18T10:02:51;7.25;;;1.73;;
33403;SDS011;19751;40.274;18.268;2022-12-18T10:05:29;6.38;;;1.70;;
33403;SDS011;19751;40.274;18.268;2022-12-18T10:08:22;11.52;;;2.33;;
33403;SDS011;19751;40.274;18.268;2022-12-18T10:10:57;5.75;;;1.60;;
33403;SDS011;19751;40.274;18.268;2022-12-18T10:13:47;10.45;;;3.05;;
33403;SDS011;19751;40.274;18.268;2022-12-18T10:16:27;5.85;;;1.40;;
33403;SDS011;19751;40.274;18.268;2022-12-18T10:22:09;7.80;;;3.10;;
33403;SDS011;19751;40.274;18.268;2022-12-18T10:24:39;7.07;;;2.42;;
33403;SDS011;19751;40.274;18.268;2022-12-18T10:27:21;6.95;;;2.25;;
33403;SDS011;19751;40.274;18.268;2022-12-18T10:29:50;3.65;;;2.75;;
33403;SDS011;19751;40.274;18.268;2022-12-18T10:32:17;7.00;;;1.55;;
33403;SDS011;19751;40.274;18.268;2022-12-18T10:34:45;3.97;;;1.30;;
33403;SDS011;19751;40.274;18.268;2022-12-18T10:37:18;7.53;;;2.15;;
33403;SDS011;19751;40.274;18.268;2022-12-18T10:40:06;2.55;;;1.10;;
33403;SDS011;19751;40.274;18.268;2022-12-18T10:42:34;4.35;;;1.10;;
33403;SDS011;19751;40.274;18.268;2022-12-18T10:45:02;7.38;;;3.15;;
33403;SDS011;19751;40.274;18.268;2022-12-18T10:47:33;8.27;;;1.95;;
33403;SDS011;19751;40.274;18.268;2022-12-18T10:49:59;5.13;;;1.35;;
33403;SDS011;19751;40.274;18.268;2022-12-18T10:52:25;3.40;;;0.93;;
33403;SDS011;19751;40.274;18.268;2022-12-18T10:59:52;7.97;;;1.52;;
33403;SDS011;19751;40.274;18.268;2022-12-18T11:02:27;2.63;;;1.23;;
33403;SDS011;19751;40.274;18.268;2022-12-18T11:05:23;5.47;;;1.98;;
33403;SDS011;19751;40.274;18.268;2022-12-18T11:07:52;3.20;;;1.90;;
33403;SDS011;19751;40.274;18.268;2022-12-18T11:10:25;8.52;;;1.70;;
33403;SDS011;19751;40.274;18.268;2022-12-18T11:12:55;5.32;;;2.50;;
33403;SDS011;19751;40.274;18.268;2022-12-18T11:15:33;4.57;;;1.40;;
33403;SDS011;19751;40.274;18.268;2022-12-18T11:17:59;6.35;;;1.45;;
33403;SDS011;19751;40.274;18.268;2022-12-18T11:22:59;5.60;;;1.75;;
33403;SDS011;19751;40.274;18.268;2022-12-18T11:25:26;2.63;;;1.13;;
33403;SDS011;19751;40.274;18.268;2022-12-18T11:27:53;6.45;;;1.60;;
33403;SDS011;19751;40.274;18.268;2022-12-18T11:32:48;5.15;;;1.83;;
33403;SDS011;19751;40.274;18.268;2022-12-18T11:35:19;5.32;;;1.48;;
33403;SDS011;19751;40.274;18.268;2022-12-18T11:37:51;4.07;;;1.70;;
33403;SDS011;19751;40.274;18.268;2022-12-18T11:45:55;9.00;;;1.75;;
33403;SDS011;19751;40.274;18.268;2022-12-18T11:48:36;5.63;;;1.58;;
33403;SDS011;19751;40.274;18.268;2022-12-18T11:51:34;5.45;;;1.40;;
33403;SDS011;19751;40.274;18.268;2022-12-18T11:54:21;6.05;;;2.60;;
33403;SDS011;19751;40.274;18.268;2022-12-18T11:56:55;21.10;;;3.22;;
33403;SDS011;19751;40.274;18.268;2022-12-18T12:02:26;2.60;;;1.25;;
33403;SDS011;19751;40.274;18.268;2022-12-18T12:08:00;5.90;;;1.15;;
33403;SDS011;19751;40.274;18.268;2022-12-18T12:16:15;5.28;;;1.23;;
33403;SDS011;19751;40.274;18.268;2022-12-18T12:21:42;6.05;;;1.58;;
33403;SDS011;19751;40.274;18.268;2022-12-18T12:24:20;4.85;;;1.40;;
33403;SDS011;19751;40.274;18.268;2022-12-18T12:29:39;5.10;;;1.50;;
33403;SDS011;19751;40.274;18.268;2022-12-18T12:37:55;3.67;;;1.70;;
33403;SDS011;19751;40.274;18.268;2022-12-18T12:40:23;7.63;;;2.13;;
33403;SDS011;19751;40.274;18.268;2022-12-18T12:42:56;3.05;;;1.60;;
33403;SDS011;19751;40.274;18.268;2022-12-18T12:45:53;8.10;;;2.85;;
33403;SDS011;19751;40.274;18.268;2022-12-18T12:50:58;2.63;;;1.30;;
33403;SDS011;19751;40.274;18.268;2022-12-18T12:53:34;5.35;;;1.65;;
33403;SDS011;19751;40.274;18.268;2022-12-18T12:56:03;3.90;;;1.13;;
33403;SDS011;19751;40.274;18.268;2022-12-18T12:58:36;10.77;;;1.58;;
33403;SDS011;19751;40.274;18.268;2022-12-18T13:04:47;6.57;;;2.50;;
33403;SDS011;19751;40.274;18.268;2022-12-18T13:07:41;8.43;;;1.10;;
33403;SDS011;19751;40.274;18.268;2022-12-18T13:15:48;6.30;;;1.67;;
33403;SDS011;19751;40.274;18.268;2022-12-18T13:18:28;3.20;;;1.98;;
33403;SDS011;19751;40.274;18.268;2022-12-18T13:25:48;9.23;;;2.00;;
33403;SDS011;19751;40.274;18.268;2022-12-18T13:30:59;3.67;;;1.30;;
33403;SDS011;19751;40.274;18.268;2022-12-18T13:38:38;9.20;;;2.35;;
33403;SDS011;19751;40.274;18.268;2022-12-18T13:43:43;2.55;;;1.20;;
33403;SDS011;19751;40.274;18.268;2022-12-18T13:51:17;4.90;;;2.03;;
33403;SDS011;19751;40.274;18.268;2022-12-18T13:53:53;3.20;;;1.42;;
33403;SDS011;19751;40.274;18.268;2022-12-18T13:56:23;6.75;;;2.78;;
33403;SDS011;19751;40.274;18.268;2022-12-18T14:01:55;3.83;;;2.00;;
33403;SDS011;19751;40.274;18.268;2022-12-18T14:06:57;7.63;;;1.92;;
33403;SDS011;19751;40.274;18.268;2022-12-18T14:09:28;4.35;;;1.45;;
33403;SDS011;19751;40.274;18.268;2022-12-18T14:11:56;7.82;;;1.70;;
33403;SDS011;19751;40.274;18.268;2022-12-18T14:14:44;12.27;;;3.00;;
33403;SDS011;19751;40.274;18.268;2022-12-18T14:17:13;3.90;;;1.88;;
33403;SDS011;19751;40.274;18.268;2022-12-18T14:19:47;8.13;;;2.05;;
33403;SDS011;19751;40.274;18.268;2022-12-18T14:22:21;7.40;;;1.60;;
33403;SDS011;19751;40.274;18.268;2022-12-18T14:27:42;3.67;;;1.50;;
33403;SDS011;19751;40.274;18.268;2022-12-18T14:30:22;2.70;;;1.25;;
33403;SDS011;19751;40.274;18.268;2022-12-18T14:35:29;5.75;;;1.42;;
33403;SDS011;19751;40.274;18.268;2022-12-18T14:40:42;6.38;;;2.22;;
33403;SDS011;19751;40.274;18.268;2022-12-18T14:43:10;4.72;;;1.65;;
33403;SDS011;19751;40.274;18.268;2022-12-18T14:45:36;8.45;;;2.03;;
33403;SDS011;19751;40.274;18.268;2022-12-18T14:48:12;6.60;;;1.88;;
33403;SDS011;19751;40.274;18.268;2022-12-18T14:50:42;7.13;;;1.85;;
33403;SDS011;19751;40.274;18.268;2022-12-18T14:56:00;5.80;;;1.73;;
33403;SDS011;19751;40.274;18.268;2022-12-18T14:58:26;5.82;;;1.50;;
33403;SDS011;19751;40.274;18.268;2022-12-18T15:00:52;6.90;;;1.95;;
33403;SDS011;19751;40.274;18.268;2022-12-18T15:05:46;2.92;;;1.30;;
33403;SDS011;19751;40.274;18.268;2022-12-18T15:08:34;5.10;;;1.35;;
33403;SDS011;19751;40.274;18.268;2022-12-18T15:11:01;5.38;;;2.30;;
33403;SDS011;19751;40.274;18.268;2022-12-18T15:13:27;7.85;;;2.30;;
33403;SDS011;19751;40.274;18.268;2022-12-18T15:15:54;7.63;;;2.50;;
33403;SDS011;19751;40.274;18.268;2022-12-18T15:18:33;3.85;;;1.70;;
33403;SDS011;19751;40.274;18.268;2022-12-18T15:21:09;4.88;;;1.67;;
33403;SDS011;19751;40.274;18.268;2022-12-18T15:26:11;6.57;;;3.90;;
33403;SDS011;19751;40.274;18.268;2022-12-18T15:28:44;5.57;;;2.60;;
33403;SDS011;19751;40.274;18.268;2022-12-18T15:33:44;5.97;;;1.08;;
33403;SDS011;19751;40.274;18.268;2022-12-18T15:36:24;5.00;;;1.55;;
33403;SDS011;19751;40.274;18.268;2022-12-18T15:38:50;2.28;;;1.30;;
33403;SDS011;19751;40.274;18.268;2022-12-18T15:41:18;2.85;;;1.70;;
33403;SDS011;19751;40.274;18.268;2022-12-18T15:43:46;2.88;;;1.23;;
33403;SDS011;19751;40.274;18.268;2022-12-18T15:48:47;3.67;;;1.80;;
33403;SDS011;19751;40.274;18.268;2022-12-18T15:53:45;4.20;;;1.52;;
33403;SDS011;19751;40.274;18.268;2022-12-18T15:56:12;4.45;;;2.50;;
33403;SDS011;19751;40.274;18.268;2022-12-18T15:58:58;4.63;;;2.58;;
33403;SDS011;19751;40.274;18.268;2022-12-18T16:01:25;8.07;;;2.80;;
33403;SDS011;19751;40.274;18.268;2022-12-18T16:03:53;5.57;;;2.63;;
33403;SDS011;19751;40.274;18.268;2022-12-18T16:06:20;8.68;;;3.17;;
33403;SDS011;19751;40.274;18.268;2022-12-18T16:08:46;5.00;;;2.30;;
33403;SDS011;19751;40.274;18.268;2022-12-18T16:11:22;2.72;;;1.60;;
33403;SDS011;19751;40.274;18.268;2022-12-18T16:14:15;4.85;;;2.10;;
33403;SDS011;19751;40.274;18.268;2022-12-18T16:16:49;6.40;;;2.00;;
33403;SDS011;19751;40.274;18.268;2022-12-18T16:19:17;3.28;;;1.60;;
33403;SDS011;19751;40.274;18.268;2022-12-18T16:21:44;2.83;;;1.67;;
33403;SDS011;19751;40.274;18.268;2022-12-18T16:24:21;3.95;;;1.00;;
33403;SDS011;19751;40.274;18.268;2022-12-18T16:26:48;5.47;;;1.60;;
33403;SDS011;19751;40.274;18.268;2022-12-18T16:29:14;2.05;;;1.02;;
33403;SDS011;19751;40.274;18.268;2022-12-18T16:31:40;7.38;;;2.92;;
33403;SDS011;19751;40.274;18.268;2022-12-18T16:36:55;9.05;;;3.65;;
33403;SDS011;19751;40.274;18.268;2022-12-18T16:39:29;7.13;;;2.97;;
33403;SDS011;19751;40.274;18.268;2022-12-18T16:41:55;6.95;;;3.50;;
33403;SDS011;19751;40.274;18.268;2022-12-18T16:44:21;10.68;;;3.10;;
33403;SDS011;19751;40.274;18.268;2022-12-18T16:46:47;4.70;;;2.17;;
33403;SDS011;19751;40.274;18.268;2022-12-18T16:49:17;9.00;;;3.55;;
33403;SDS011;19751;40.274;18.268;2022-12-18T16:51:44;8.20;;;3.45;;
33403;SDS011;19751;40.274;18.268;2022-12-18T16:54:13;5.22;;;3.30;;
33403;SDS011;19751;40.274;18.268;2022-12-18T16:56:39;7.00;;;2.95;;
33403;SDS011;19751;40.274;18.268;2022-12-18T16:59:06;8.57;;;3.58;;
33403;SDS011;19751;40.274;18.268;2022-12-18T17:01:35;8.52;;;2.88;;
33403;SDS011;19751;40.274;18.268;2022-12-18T17:04:02;6.00;;;2.63;;
33403;SDS011;19751;40.274;18.268;2022-12-18T17:06:31;4.20;;;2.72;;
33403;SDS011;19751;40.274;18.268;2022-12-18T17:08:59;4.10;;;2.28;;
33403;SDS011;19751;40.274;18.268;2022-12-18T17:11:26;4.75;;;1.80;;
33403;SDS011;19751;40.274;18.268;2022-12-18T17:13:52;8.55;;;3.95;;
33403;SDS011;19751;40.274;18.268;2022-12-18T17:16:19;11.90;;;6.22;;
33403;SDS011;19751;40.274;18.268;2022-12-18T17:18:44;10.45;;;6.50;;
33403;SDS011;19751;40.274;18.268;2022-12-18T17:21:11;6.65;;;3.90;;
33403;SDS011;19751;40.274;18.268;2022-12-18T17:23:38;3.97;;;2.85;;
33403;SDS011;19751;40.274;18.268;2022-12-18T17:26:06;6.80;;;3.22;;
33403;SDS011;19751;40.274;18.268;2022-12-18T17:28:32;5.65;;;3.70;;
33403;SDS011;19751;40.274;18.268;2022-12-18T17:30:59;6.63;;;3.40;;
33403;SDS011;19751;40.274;18.268;2022-12-18T17:33:25;9.27;;;3.25;;
33403;SDS011;19751;40.274;18.268;2022-12-18T17:35:50;3.92;;;2.80;;